Time;durP1;ratioP1;P1;durP2;ratioP2;P2;SDS_P1;SDS_P2;PMS_P1;PMS_P2;Temp;Humidity;BMP_temperature;BMP_pressure;BME280_temperature;BME280_humidity;BME280_pressure;Samples;Min_cycle;Max_cycle;Signal;HPM_P1;HPM_P2
2022/07/29 00:01:08;;;;;;;3.78;1.25;;;;;;;-148.88;56.45;75334.44;5054627;28;20029;-76
2022/07/29 00:03:33;;;;;;;3.67;1.30;;;;;;;-148.88;56.41;75328.34;5054589;28;20470;-76
2022/07/29 00:05:59;;;;;;;2.75;1.50;;;;;;;-148.88;56.88;75342.56;5054524;28;20035;-76
2022/07/29 00:08:24;;;;;;;5.82;1.40;;;;;;;-148.88;57.12;75336.47;5053250;28;20025;-75
2022/07/29 00:10:49;;;;;;;3.33;1.30;;;;;;;-148.88;57.28;75338.50;5054381;28;20033;-76
2022/07/29 00:13:15;;;;;;;4.50;1.40;;;;;;;-148.88;56.88;75354.75;5054396;28;20017;-76
2022/07/29 00:15:40;;;;;;;3.47;1.20;;;;;;;-148.88;57.73;75362.88;5054285;28;20029;-76
2022/07/29 00:18:05;;;;;;;3.33;1.48;;;;;;;-148.88;57.69;75371.00;5052615;28;20053;-76
2022/07/29 00:20:31;;;;;;;3.22;1.00;;;;;;;-148.88;57.46;75377.09;5054407;28;20033;-76
2022/07/29 00:22:56;;;;;;;3.58;1.30;;;;;;;-148.88;57.41;75379.13;5054307;28;20029;-76
2022/07/29 00:25:22;;;;;;;5.70;1.38;;;;;;;-148.88;57.58;75383.19;5054297;28;20032;-76
2022/07/29 00:27:47;;;;;;;4.43;1.50;;;;;;;-148.88;57.90;75377.09;5053338;28;20036;-75
2022/07/29 00:30:12;;;;;;;3.63;1.30;;;;;;;-148.88;57.18;75379.13;5054190;28;20198;-76
2022/07/29 00:32:38;;;;;;;4.57;1.50;;;;;;;-148.88;57.70;75377.09;5052804;28;20024;-76
2022/07/29 00:37:48;;;;;;;3.95;1.23;;;;;;;-148.88;55.46;75346.63;5054142;28;20048;-75
2022/07/29 00:40:13;;;;;;;2.95;1.13;;;;;;;-148.88;54.97;75336.47;5053919;28;20490;-76
2022/07/29 00:42:47;;;;;;;4.70;1.20;;;;;;;-148.88;54.65;75330.38;5052613;28;20021;-76
2022/07/29 00:45:13;;;;;;;5.97;1.20;;;;;;;-148.88;54.48;75326.31;5053874;28;20490;-76
2022/07/29 00:47:38;;;;;;;2.97;1.40;;;;;;;-148.88;54.06;75326.31;5053786;28;20055;-76
2022/07/29 00:50:05;;;;;;;4.25;1.10;;;;;;;-148.88;53.75;75320.22;5053704;28;20033;-76
2022/07/29 00:52:32;;;;;;;4.35;1.25;;;;;;;-148.88;53.65;75310.06;5053680;28;20025;-76
2022/07/29 00:54:57;;;;;;;2.85;1.02;;;;;;;-148.88;53.91;75310.06;5053770;28;20024;-76
2022/07/29 00:57:22;;;;;;;5.03;1.52;;;;;;;-148.88;53.92;75314.13;5053490;28;20031;-76
2022/07/29 00:59:48;;;;;;;2.60;1.17;;;;;;;-148.88;53.44;75318.19;5052386;28;20029;-76
2022/07/29 01:02:13;;;;;;;4.28;1.38;;;;;;;-148.88;53.88;75314.13;5052874;28;20037;-76
2022/07/29 01:04:39;;;;;;;3.50;1.40;;;;;;;-148.88;53.58;75306.00;5054386;28;20474;-76
2022/07/29 01:07:05;;;;;;;4.10;1.38;;;;;;;-148.88;53.56;75301.94;5052917;28;20013;-75
2022/07/29 01:09:32;;;;;;;3.75;1.13;;;;;;;-148.88;53.71;75301.94;5053464;28;20032;-75
2022/07/29 01:11:58;;;;;;;4.57;1.30;;;;;;;-148.88;53.81;75306.00;5053438;28;20067;-76
2022/07/29 01:14:25;;;;;;;6.05;1.20;;;;;;;-148.88;54.18;75306.00;5052040;28;20029;-75
2022/07/29 01:17:01;;;;;;;3.10;1.20;;;;;;;-148.88;54.45;75306.00;5052782;28;20020;-76
2022/07/29 01:19:50;;;;;;;4.60;1.40;;;;;;;-148.88;54.90;75308.03;5051974;28;20025;-76
2022/07/29 01:22:31;;;;;;;5.43;1.20;;;;;;;-148.88;54.77;75306.00;5051939;28;20020;-76
2022/07/29 01:25:33;;;;;;;6.40;1.48;;;;;;;-148.88;54.76;75314.13;5051935;28;20048;-76
2022/07/29 01:28:17;;;;;;;6.45;1.40;;;;;;;-148.88;54.92;75316.16;5051807;28;20478;-76
2022/07/29 01:30:45;;;;;;;3.83;1.38;;;;;;;-148.88;55.26;75312.09;5051923;28;20035;-76
2022/07/29 01:33:48;;;;;;;4.50;1.50;;;;;;;-148.88;54.88;75318.19;5051780;28;20374;-76
2022/07/29 01:36:07;;;;;;;3.60;1.30;;;;;;;-148.88;54.96;75318.19;5052883;28;20083;-76
2022/07/29 01:38:35;;;;;;;5.05;1.50;;;;;;;-148.88;55.49;75312.09;5053296;28;20021;-76
2022/07/29 01:41:14;;;;;;;5.70;1.40;;;;;;;-148.88;54.94;75322.25;5051819;28;20032;-76
2022/07/29 01:43:49;;;;;;;5.05;1.45;;;;;;;-148.88;54.75;75310.06;5053189;28;20086;-75
2022/07/29 01:46:19;;;;;;;5.22;1.30;;;;;;;-148.88;54.81;75314.13;5051749;28;20119;-76
2022/07/29 01:48:57;;;;;;;4.70;1.20;;;;;;;-148.88;54.50;75312.09;5052981;28;20382;-76
2022/07/29 01:51:32;;;;;;;3.05;1.20;;;;;;;-148.88;54.51;75312.09;5053177;28;20108;-76
2022/07/29 01:54:24;;;;;;;4.28;1.17;;;;;;;-148.88;54.52;75308.03;5052879;28;20029;-76
2022/07/29 01:56:53;;;;;;;2.72;1.10;;;;;;;-148.88;54.52;75308.03;5052816;28;20029;-75
2022/07/29 01:59:21;;;;;;;3.72;1.05;;;;;;;-148.88;54.40;75314.13;5051377;28;20029;-76
2022/07/29 02:01:48;;;;;;;3.28;1.52;;;;;;;-148.88;54.47;75306.00;5052708;28;20017;-76
2022/07/29 02:04:16;;;;;;;4.57;1.42;;;;;;;-148.88;54.56;75303.97;5052773;28;20541;-76
2022/07/29 02:06:44;;;;;;;7.72;1.33;;;;;;;-148.88;54.67;75301.94;5052729;28;20528;-76
2022/07/29 02:09:12;;;;;;;5.63;1.38;;;;;;;-148.88;55.03;75306.00;5052746;28;20031;-76
2022/07/29 02:11:39;;;;;;;4.78;1.00;;;;;;;-148.88;55.22;75306.00;5052661;28;20032;-76
2022/07/29 02:14:05;;;;;;;3.40;1.20;;;;;;;-148.88;55.09;75306.00;5052677;28;20035;-76
2022/07/29 02:16:33;;;;;;;4.57;1.30;;;;;;;-148.88;55.18;75308.03;5052561;28;20025;-76
2022/07/29 02:19:01;;;;;;;2.42;1.25;;;;;;;-148.88;55.03;75299.91;5052716;28;20056;-76
2022/07/29 02:21:28;;;;;;;6.15;1.30;;;;;;;-148.88;55.36;75306.00;5052664;28;20478;-75
2022/07/29 02:23:59;;;;;;;3.28;1.25;;;;;;;-148.88;55.81;75306.00;5052608;28;20025;-75
2022/07/29 02:26:26;;;;;;;4.18;1.40;;;;;;;-148.88;56.72;75322.25;5052581;28;20094;-75
2022/07/29 02:28:53;;;;;;;3.30;1.05;;;;;;;-148.88;57.16;75310.06;5052511;28;20025;-75
2022/07/29 02:31:22;;;;;;;7.10;1.52;;;;;;;-148.88;57.20;75314.13;5052463;28;20028;-76
2022/07/29 02:33:49;;;;;;;5.28;1.30;;;;;;;-148.88;57.37;75322.25;5052538;28;20025;-76
2022/07/29 02:36:15;;;;;;;4.28;1.20;;;;;;;-148.88;57.90;75318.19;5052646;28;20049;-76
2022/07/29 02:38:51;;;;;;;2.20;1.20;;;;;;;-148.88;57.98;75322.25;5052741;28;20060;-75
2022/07/29 02:41:41;;;;;;;3.20;1.40;;;;;;;-148.88;57.60;75342.56;5055490;28;20457;-76
2022/07/29 02:44:20;;;;;;;6.03;1.42;;;;;;;-148.88;56.79;75330.38;5056286;28;20021;-76
2022/07/29 02:46:51;;;;;;;4.53;1.58;;;;;;;-148.88;56.58;75336.47;5055980;28;20463;-76
2022/07/29 02:49:21;;;;;;;3.08;1.30;;;;;;;-148.88;56.55;75338.50;5056074;28;20025;-76
2022/07/29 02:51:54;;;;;;;6.38;1.13;;;;;;;-148.88;56.51;75342.56;5055954;28;20025;-76
2022/07/29 02:54:25;;;;;;;3.88;1.70;;;;;;;-148.88;56.56;75346.63;5054966;28;20506;-76
2022/07/29 02:56:55;;;;;;;3.60;1.52;;;;;;;-148.88;56.28;75338.50;5056084;28;20087;-76
2022/07/29 02:59:24;;;;;;;5.35;1.13;;;;;;;-148.88;55.91;75336.47;5075612;22;20079;-87
2022/07/29 03:01:51;;;;;;;4.40;1.35;;;;;;;-148.88;56.04;75328.34;5055712;28;20025;-87
2022/07/29 03:04:19;;;;;;;6.53;1.30;;;;;;;-148.88;56.12;75326.31;5055679;28;20020;-87
2022/07/29 03:06:46;;;;;;;4.22;1.38;;;;;;;-148.88;55.99;75322.25;5055111;28;20028;-87
2022/07/29 03:09:12;;;;;;;4.90;1.33;;;;;;;-148.88;56.43;75326.31;5055114;28;20434;-87
2022/07/29 03:11:38;;;;;;;4.05;1.30;;;;;;;-148.88;57.21;75328.34;5055435;28;20025;-87
2022/07/29 03:14:05;;;;;;;4.15;1.15;;;;;;;-148.88;57.91;75326.31;5055071;28;20032;-86
2022/07/29 03:16:31;;;;;;;3.28;1.38;;;;;;;-148.88;58.34;75346.63;5055001;28;20089;-86
2022/07/29 03:18:57;;;;;;;4.60;1.30;;;;;;;-148.88;58.57;75346.63;5054880;28;20035;-88
2022/07/29 03:21:22;;;;;;;3.92;1.33;;;;;;;-148.88;58.53;75346.63;5055097;28;20048;-87
2022/07/29 03:23:48;;;;;;;3.38;1.10;;;;;;;-148.88;57.91;75346.63;5055239;28;20021;-87
2022/07/29 03:26:13;;;;;;;3.75;1.10;;;;;;;-148.88;57.23;75342.56;5054786;28;20108;-87
2022/07/29 03:28:39;;;;;;;3.63;1.20;;;;;;;-148.88;57.05;75346.63;5054026;28;20063;-87
2022/07/29 03:31:04;;;;;;;3.03;1.15;;;;;;;-148.88;56.67;75348.66;5055433;28;20024;-87
2022/07/29 03:33:30;;;;;;;6.28;1.85;;;;;;;-148.88;56.35;75344.59;5055108;28;20103;-87
2022/07/29 03:35:55;;;;;;;5.57;1.40;;;;;;;-148.88;55.93;75334.44;5055199;28;20403;-87
2022/07/29 03:38:24;;;;;;;5.20;1.60;;;;;;;-148.88;56.53;75334.44;5055694;28;20017;-88
2022/07/29 03:40:55;;;;;;;4.00;1.40;;;;;;;-148.88;56.14;75332.41;5055276;28;20158;-87
2022/07/29 03:43:24;;;;;;;6.45;1.42;;;;;;;-148.88;55.95;75328.34;5055335;28;20036;-87
2022/07/29 03:45:53;;;;;;;3.63;1.50;;;;;;;-148.88;56.12;75330.38;5055173;28;20047;-87
2022/07/29 03:48:21;;;;;;;8.68;1.35;;;;;;;-148.88;56.42;75326.31;5054888;28;20499;-87
2022/07/29 03:50:47;;;;;;;4.63;1.25;;;;;;;-148.88;56.36;75318.19;5054346;28;20104;-87
2022/07/29 03:53:13;;;;;;;3.90;1.17;;;;;;;-148.88;56.40;75326.31;5054556;28;20100;-87
2022/07/29 03:55:46;;;;;;;4.57;1.35;;;;;;;-148.88;56.88;75322.25;5055357;28;20021;-87
2022/07/29 03:58:14;;;;;;;3.80;1.23;;;;;;;-148.88;56.04;75326.31;5074274;28;20033;-87
2022/07/29 04:00:40;;;;;;;4.35;1.30;;;;;;;-148.88;55.88;75332.41;5079266;28;20088;-87
2022/07/29 04:03:06;;;;;;;4.55;1.50;;;;;;;-148.88;56.55;75326.31;5075745;28;20037;-87
2022/07/29 04:05:31;;;;;;;5.90;1.38;;;;;;;-148.88;56.31;75330.38;5054314;28;20036;-87
2022/07/29 04:07:56;;;;;;;3.38;1.38;;;;;;;-148.88;56.54;75328.34;5054872;28;20021;-88
2022/07/29 04:10:25;;;;;;;5.75;1.52;;;;;;;-148.88;57.26;75330.38;5054426;28;20119;-87
2022/07/29 04:12:50;;;;;;;4.22;1.50;;;;;;;-148.88;58.45;75342.56;5055379;28;20108;-87
2022/07/29 04:15:16;;;;;;;5.03;1.40;;;;;;;-148.88;59.09;75346.63;5056194;28;20017;-87
2022/07/29 04:17:41;;;;;;;4.03;1.40;;;;;;;-148.88;58.41;75346.63;5056578;28;20063;-87
2022/07/29 04:20:07;;;;;;;3.15;1.23;;;;;;;-148.88;58.00;75340.53;5054486;28;20087;-87
2022/07/29 04:22:32;;;;;;;4.97;1.23;;;;;;;-148.88;57.43;75350.69;5055609;28;20051;-87
2022/07/29 04:24:58;;;;;;;4.32;1.30;;;;;;;-148.88;57.27;75346.63;5055765;28;20025;-87
2022/07/29 04:27:23;;;;;;;3.67;1.10;;;;;;;-148.88;57.18;75348.66;5055289;28;20070;-87
2022/07/29 04:29:49;;;;;;;3.15;1.20;;;;;;;-148.88;57.37;75342.56;5054507;28;20032;-87
2022/07/29 04:32:14;;;;;;;5.10;1.38;;;;;;;-148.88;56.93;75342.56;5054238;28;20070;-87
2022/07/29 04:34:39;;;;;;;3.72;1.17;;;;;;;-148.88;57.14;75342.56;5054438;28;20146;-87
2022/07/29 04:37:05;;;;;;;5.00;1.40;;;;;;;-148.88;58.18;75342.56;5052750;28;20142;-87
2022/07/29 04:39:30;;;;;;;6.22;1.48;;;;;;;-148.88;59.58;75356.78;5053903;28;20059;-87
2022/07/29 04:41:55;;;;;;;4.18;1.13;;;;;;;-148.88;60.24;75354.75;5053959;28;20483;-87
2022/07/29 04:44:21;;;;;;;5.97;1.60;;;;;;;-148.88;60.22;75356.78;5053772;28;20028;-87
2022/07/29 04:46:47;;;;;;;3.75;1.23;;;;;;;-148.88;59.09;75366.94;5053488;28;20031;-88
2022/07/29 04:49:12;;;;;;;2.88;1.45;;;;;;;-148.88;58.21;75358.81;5054179;28;20083;-88
2022/07/29 04:51:38;;;;;;;6.82;1.52;;;;;;;-148.88;58.06;75350.69;5053360;28;20029;-87
2022/07/29 04:54:12;;;;;;;7.60;1.27;;;;;;;-148.88;57.72;75348.66;5053176;28;20024;-87
2022/07/29 04:56:56;;;;;;;5.43;1.63;;;;;;;-148.88;57.58;75338.50;5052472;28;20044;-87
2022/07/29 04:59:35;;;;;;;7.82;1.42;;;;;;;-148.88;57.66;75338.50;5051656;28;20523;-87
2022/07/29 05:02:35;;;;;;;10.48;1.65;;;;;;;-148.88;57.69;75324.28;5052069;28;20033;-87
2022/07/29 05:05:15;;;;;;;4.47;1.55;;;;;;;-148.88;57.63;75322.25;5044717;28;20495;-87
2022/07/29 05:07:44;;;;;;;3.28;1.50;;;;;;;-148.88;57.48;75310.06;5051566;28;20017;-87
2022/07/29 05:10:12;;;;;;;4.00;1.35;;;;;;;-148.88;57.90;75299.91;5051502;28;20037;-87
2022/07/29 05:12:38;;;;;;;4.05;1.50;;;;;;;-148.88;57.02;75297.88;5051721;28;20078;-87
2022/07/29 05:15:07;;;;;;;5.78;1.63;;;;;;;-148.88;56.63;75293.81;5051648;28;20037;-87
2022/07/29 05:17:40;;;;;;;4.63;1.48;;;;;;;-148.88;56.64;75289.75;5052390;28;20037;-87
2022/07/29 05:20:09;;;;;;;;;;;;;;;-148.88;56.64;75285.69;5052399;28;20120;-87
2022/07/29 05:22:48;;;;;;;5.90;1.38;;;;;;;-148.88;56.71;75275.56;5051856;28;19930;-87
2022/07/29 05:25:13;;;;;;;4.32;1.20;;;;;;;-148.88;56.63;75269.47;5053034;28;20029;-88
2022/07/29 05:27:39;;;;;;;3.90;1.20;;;;;;;-148.88;57.10;75261.34;5051961;28;20032;-87
2022/07/29 05:30:17;;;;;;;7.50;1.60;;;;;;;-148.88;56.69;75259.31;5053264;28;20041;-87
2022/07/29 05:33:02;;;;;;;6.03;1.42;;;;;;;-148.88;57.46;75257.28;5052575;28;20068;-87
2022/07/29 05:35:36;;;;;;;6.43;1.30;;;;;;;-148.88;56.83;75253.22;5051492;28;20033;-87
2022/07/29 05:38:09;;;;;;;5.43;1.20;;;;;;;-148.88;57.00;75245.09;5049509;28;20064;-87
2022/07/29 05:40:43;;;;;;;3.58;1.25;;;;;;;-148.88;56.98;75249.16;5053574;28;20060;-87
2022/07/29 05:43:36;;;;;;;;;;;;;;;-148.88;56.89;75247.13;5054250;28;20028;-88
2022/07/29 05:46:02;;;;;;;6.72;1.65;;;;;;;-148.88;57.37;75243.06;5050118;28;19909;-86
2022/07/29 05:48:36;;;;;;;3.78;1.27;;;;;;;-148.88;57.19;75245.09;5053286;28;20021;-87
2022/07/29 05:51:05;;;;;;;5.00;1.80;;;;;;;-148.88;57.16;75245.09;5070799;28;20039;-87
2022/07/29 05:53:37;;;;;;;4.25;1.45;;;;;;;-148.88;57.28;75241.03;5075670;28;20025;-88
2022/07/29 05:56:11;;;;;;;4.50;1.60;;;;;;;-148.88;56.25;75234.94;5069601;28;20111;-87
2022/07/29 05:58:36;;;;;;;3.72;1.27;;;;;;;-148.88;56.72;75230.88;5051850;28;20491;-88
2022/07/29 06:01:03;;;;;;;5.28;1.38;;;;;;;-148.88;56.50;75232.91;5054392;28;20040;-87
2022/07/29 06:03:46;;;;;;;3.70;1.52;;;;;;;-148.88;56.33;75216.66;5051663;28;20029;-87
2022/07/29 06:06:23;;;;;;;4.55;1.52;;;;;;;-148.88;56.54;75212.59;5052885;28;20072;-87
2022/07/29 06:09:02;;;;;;;4.75;1.75;;;;;;;-148.88;56.34;75200.41;5052194;28;20025;-87
2022/07/29 06:11:30;;;;;;;6.55;1.38;;;;;;;-148.88;56.93;75192.28;5051682;28;20048;-87
2022/07/29 06:13:58;;;;;;;4.38;1.45;;;;;;;-148.88;56.55;75180.09;5052103;28;20033;-87
2022/07/29 06:16:31;;;;;;;3.17;1.15;;;;;;;-148.88;56.02;75182.13;5054985;28;20107;-87
2022/07/29 06:19:03;;;;;;;7.43;1.40;;;;;;;-148.88;56.93;75176.03;5055133;28;20021;-87
2022/07/29 06:21:36;;;;;;;5.03;1.27;;;;;;;-148.88;55.99;75182.13;5055905;28;20033;-87
2022/07/29 06:24:18;;;;;;;5.05;1.52;;;;;;;-148.88;56.91;75171.97;5055298;28;20029;-87
2022/07/29 06:26:48;;;;;;;3.65;1.35;;;;;;;-148.88;56.77;75169.94;5057218;28;20032;-87
2022/07/29 06:29:14;;;;;;;6.70;1.52;;;;;;;-148.88;56.85;75161.81;5055251;28;20122;-87
2022/07/29 06:31:45;;;;;;;5.25;1.25;;;;;;;-148.88;56.70;75155.72;5056710;28;20383;-87
2022/07/29 06:34:11;;;;;;;4.80;1.50;;;;;;;-148.88;56.51;75155.72;5055536;28;20025;-87
2022/07/29 06:36:49;;;;;;;5.53;1.80;;;;;;;-148.88;57.18;75151.66;5055358;28;20498;-87
2022/07/29 06:39:20;;;;;;;4.10;1.33;;;;;;;-148.88;57.28;75149.63;5055790;28;20116;-87
2022/07/29 06:41:48;;;;;;;6.10;1.60;;;;;;;-148.88;55.42;75147.59;5056285;28;20032;-88
2022/07/29 06:44:25;;;;;;;5.13;1.30;;;;;;;-148.88;55.94;75135.41;5054447;28;20025;-87
2022/07/29 06:46:51;;;;;;;2.03;1.05;;;;;;;-148.88;56.85;75125.25;5055154;28;20025;-87
2022/07/29 06:49:27;;;;;;;3.22;1.38;;;;;;;-148.88;56.78;75125.25;5054210;28;20040;-87
2022/07/29 06:51:53;;;;;;;6.60;1.60;;;;;;;-148.88;54.88;75113.06;5056708;28;20033;-87
2022/07/29 06:54:18;;;;;;;5.05;1.67;;;;;;;-148.88;55.14;75102.91;5055061;28;20107;-87
2022/07/29 06:56:43;;;;;;;4.53;1.58;;;;;;;-148.88;54.98;75090.72;5055974;28;20364;-87
2022/07/29 06:59:10;;;;;;;5.38;1.42;;;;;;;-148.88;55.64;75082.63;5055742;28;20044;-87
2022/07/29 07:01:43;;;;;;;7.28;1.77;;;;;;;-148.88;55.31;75080.59;5055429;28;20438;-87
2022/07/29 07:04:09;;;;;;;3.97;1.40;;;;;;;-148.88;55.48;75080.59;5055395;28;20108;-87
2022/07/29 07:06:35;;;;;;;4.82;1.25;;;;;;;-148.88;53.54;75082.63;5055540;28;20021;-87
2022/07/29 07:09:00;;;;;;;5.18;1.50;;;;;;;-148.88;54.10;75078.56;5055449;28;20081;-87
2022/07/29 07:11:26;;;;;;;4.82;1.25;;;;;;;-148.88;55.71;75068.41;5055355;28;20538;-87
2022/07/29 07:13:51;;;;;;;2.70;1.42;;;;;;;-148.88;55.87;75066.38;5055331;28;20052;-87
2022/07/29 07:16:17;;;;;;;4.85;1.25;;;;;;;-148.88;55.69;75064.34;5055504;28;20029;-87
2022/07/29 07:18:44;;;;;;;4.10;1.15;;;;;;;-148.88;55.96;75058.25;5055233;28;20099;-87
2022/07/29 07:21:10;;;;;;;4.75;1.35;;;;;;;-148.88;57.38;75046.06;5053807;28;20029;-87
2022/07/29 07:23:35;;;;;;;2.70;1.20;;;;;;;-148.88;56.98;75050.13;5054803;28;20031;-87
2022/07/29 07:26:00;;;;;;;6.20;1.45;;;;;;;-148.88;55.19;75062.31;5055573;28;20108;-87
2022/07/29 07:28:26;;;;;;;6.00;1.17;;;;;;;-148.88;56.42;75046.06;5055015;28;20430;-88
2022/07/29 07:30:51;;;;;;;6.93;1.35;;;;;;;-148.88;56.40;75042.00;5055482;28;20064;-87
2022/07/29 07:33:16;;;;;;;6.28;1.40;;;;;;;-148.88;55.59;75044.03;5055276;28;20033;-87
2022/07/29 07:35:42;;;;;;;5.60;1.40;;;;;;;-148.88;54.86;75042.00;5055225;28;20125;-87
2022/07/29 07:38:07;;;;;;;4.45;1.70;;;;;;;-148.88;53.77;75037.94;5055183;28;20472;-87
2022/07/29 07:40:33;;;;;;;4.55;1.40;;;;;;;-148.88;53.96;75025.75;5055109;28;20028;-87
2022/07/29 07:42:58;;;;;;;3.97;1.88;;;;;;;-148.88;54.15;75013.56;5055159;28;20017;-87
2022/07/29 07:45:23;;;;;;;6.32;1.40;;;;;;;-148.88;53.54;75011.53;5055099;28;20060;-87
2022/07/29 07:47:49;;;;;;;3.67;1.50;;;;;;;-148.88;53.31;74991.22;5054986;28;20039;-88
2022/07/29 07:50:15;;;;;;;4.72;1.42;;;;;;;-148.88;51.86;74985.13;5054934;28;20032;-87
2022/07/29 07:52:51;;;;;;;4.65;1.60;;;;;;;-148.88;51.63;74972.94;5055311;28;20033;-87
2022/07/29 07:55:17;;;;;;;3.90;1.30;;;;;;;-148.88;52.57;74964.81;5055182;28;20075;-87
2022/07/29 07:57:43;;;;;;;6.03;1.75;;;;;;;-148.88;53.46;74954.66;5054731;28;20025;-88
2022/07/29 08:00:09;;;;;;;6.45;1.60;;;;;;;-148.88;52.18;74946.53;5054858;28;20112;-87
2022/07/29 08:02:34;;;;;;;4.22;1.42;;;;;;;-148.88;52.54;74938.44;5054597;28;20104;-86
2022/07/29 08:04:59;;;;;;;3.58;1.20;;;;;;;-148.88;53.52;74932.34;5054681;28;20032;-87
2022/07/29 08:07:25;;;;;;;8.25;1.40;;;;;;;-148.88;53.66;74926.25;5053370;28;20013;-87
2022/07/29 08:09:50;;;;;;;5.03;1.27;;;;;;;-148.88;53.36;74924.22;5054796;28;20036;-87
2022/07/29 08:12:15;;;;;;;2.70;1.33;;;;;;;-148.88;54.47;74918.13;5054754;28;20029;-87
2022/07/29 08:14:40;;;;;;;5.45;1.80;;;;;;;-148.88;52.03;74928.28;5054695;28;20028;-88
2022/07/29 08:17:06;;;;;;;5.47;1.30;;;;;;;-148.88;51.20;74932.34;5054945;28;20103;-87
2022/07/29 08:19:31;;;;;;;4.45;1.30;;;;;;;-148.88;51.95;74924.22;5054598;28;20024;-87
2022/07/29 08:21:56;;;;;;;4.43;1.30;;;;;;;-148.88;51.17;74920.16;5054520;28;20031;-87
2022/07/29 08:27:06;;;;;;;5.85;1.52;;;;;;;-148.88;51.28;74899.84;5054307;28;20028;-87
2022/07/29 08:29:31;;;;;;;4.18;1.50;;;;;;;-148.88;51.91;74885.63;5054053;28;20024;-87
2022/07/29 08:31:56;;;;;;;4.03;1.60;;;;;;;-148.88;51.43;74857.19;5054400;28;20056;-87
2022/07/29 08:34:22;;;;;;;5.18;1.55;;;;;;;-148.88;49.34;74857.19;5054768;28;20025;-87
2022/07/29 08:36:47;;;;;;;5.63;1.27;;;;;;;-148.88;49.74;74849.06;5054306;28;20032;-87
2022/07/29 08:39:12;;;;;;;6.85;1.60;;;;;;;-148.88;48.45;74859.22;5052303;28;20032;-87
2022/07/29 08:41:38;;;;;;;5.18;1.50;;;;;;;-148.88;49.62;74845.00;5054245;28;20394;-87
2022/07/29 08:44:03;;;;;;;2.38;1.20;;;;;;;-148.88;49.37;74847.03;5054200;28;20029;-88
2022/07/29 08:46:29;;;;;;;3.38;1.52;;;;;;;-148.88;48.78;74830.78;5052750;28;20056;-88
2022/07/29 08:48:55;;;;;;;4.65;1.23;;;;;;;-148.88;51.14;74810.50;5054149;28;20033;-87
2022/07/29 08:51:21;;;;;;;4.30;1.58;;;;;;;-148.88;48.75;74788.16;5054523;28;20021;-88
2022/07/29 08:54:05;;;;;;;4.90;1.55;;;;;;;-148.88;50.05;74763.78;5053845;28;20552;-88
2022/07/29 08:56:47;;;;;;;;;;;;;;;-148.88;50.08;74782.06;5053777;28;20036;-87
2022/07/29 08:59:13;;;;;;;7.25;1.67;;;;;;;-148.88;47.87;74769.88;5179772;22;19944;-85
2022/07/29 09:01:40;;;;;;;3.53;1.27;;;;;;;-148.88;48.81;74741.44;5050532;28;20018;-85
2022/07/29 09:04:10;;;;;;;5.93;1.52;;;;;;;-148.88;48.10;74729.25;5033827;28;20032;-84
2022/07/29 09:06:39;;;;;;;4.28;1.65;;;;;;;-148.88;48.15;74717.06;5034555;28;20108;-85
2022/07/29 09:09:35;;;;;;;5.97;1.65;;;;;;;-148.88;48.68;74694.75;5034290;28;20048;-85
2022/07/29 09:12:05;;;;;;;5.80;1.33;;;;;;;-148.88;47.61;74654.13;5006849;28;20064;-86
2022/07/29 09:14:33;;;;;;;5.90;1.60;;;;;;;-148.88;48.14;74648.03;5034737;28;20064;-84
2022/07/29 09:16:58;;;;;;;4.68;1.45;;;;;;;-148.88;47.29;74587.13;5033243;28;20072;-84
2022/07/29 09:19:34;;;;;;;5.00;1.42;;;;;;;-148.88;45.04;74554.63;5033755;28;20025;-84
2022/07/29 09:22:03;;;;;;;7.47;1.52;;;;;;;-148.88;45.50;74558.69;5033683;28;20032;-85
2022/07/29 09:24:41;;;;;;;9.93;1.40;;;;;;;-148.88;45.66;74550.56;5032969;28;20033;-83
2022/07/29 09:27:19;;;;;;;4.22;1.38;;;;;;;-148.88;44.79;74538.38;5034357;28;20014;-85
2022/07/29 09:29:44;;;;;;;3.13;1.30;;;;;;;-148.88;45.92;74534.31;5033369;28;20017;-85
2022/07/29 09:32:10;;;;;;;6.13;1.55;;;;;;;-148.88;43.90;74449.03;5036293;28;20025;-86
2022/07/29 09:34:36;;;;;;;8.73;1.55;;;;;;;-148.88;44.90;74444.97;5039296;28;20423;-85
2022/07/29 09:37:03;;;;;;;3.38;1.38;;;;;;;-148.88;44.26;74422.63;5034062;28;20061;-85
2022/07/29 09:39:28;;;;;;;2.88;1.30;;;;;;;-148.88;42.86;74449.03;5034300;28;20399;-85
2022/07/29 09:41:57;;;;;;;4.78;1.40;;;;;;;-148.88;43.99;74438.88;5033985;28;20030;-86
2022/07/29 09:44:26;;;;;;;4.55;1.40;;;;;;;-148.88;45.70;74416.53;5034266;28;20025;-86
2022/07/29 09:46:57;;;;;;;4.43;1.48;;;;;;;-148.88;42.54;74430.75;5035184;28;20025;-86
2022/07/29 09:49:23;;;;;;;5.70;1.55;;;;;;;-148.88;42.83;74400.31;5036094;28;20088;-85
2022/07/29 09:52:08;;;;;;;4.72;1.63;;;;;;;-148.88;43.01;74392.19;5039588;28;20119;-84
2022/07/29 09:54:37;;;;;;;5.75;1.30;;;;;;;-148.88;42.53;74392.19;5039480;28;20112;-86
2022/07/29 09:57:22;;;;;;;8.98;1.90;;;;;;;-148.88;41.15;74371.88;5039325;28;20030;-85
2022/07/29 10:00:05;;;;;;;5.18;1.77;;;;;;;-148.88;40.89;74390.16;5041809;28;20036;-85
2022/07/29 10:02:33;;;;;;;3.40;1.55;;;;;;;-148.88;42.72;74388.13;5045388;28;20040;-85
2022/07/29 10:05:01;;;;;;;4.53;1.50;;;;;;;-148.88;41.41;74392.19;5039433;28;20107;-85
2022/07/29 10:07:44;;;;;;;5.28;2.10;;;;;;;-148.88;40.71;74384.06;5039594;28;20021;-85
2022/07/29 10:10:10;;;;;;;3.10;1.60;;;;;;;-148.88;40.01;74373.91;5038925;28;20083;-85
2022/07/29 10:12:48;;;;;;;7.78;2.00;;;;;;;-148.88;40.15;74375.94;5037800;28;20104;-85
2022/07/29 10:15:31;;;;;;;5.05;2.10;;;;;;;-148.88;40.38;74380.00;5037624;28;20021;-86
2022/07/29 10:17:58;;;;;;;4.03;1.70;;;;;;;-148.88;40.67;74347.50;5035704;28;20514;-85
2022/07/29 10:20:25;;;;;;;7.07;1.88;;;;;;;-148.88;39.72;74351.56;5037741;28;20095;-84
2022/07/29 10:22:52;;;;;;;7.18;1.75;;;;;;;-148.88;41.55;74331.25;5037147;28;20400;-84
2022/07/29 10:25:18;;;;;;;8.00;1.88;;;;;;;-148.88;39.81;74359.69;5037440;28;20026;-84
2022/07/29 10:27:44;;;;;;;3.75;1.50;;;;;;;-148.88;40.87;74329.22;5037313;28;20017;-84
2022/07/29 10:30:11;;;;;;;7.35;2.08;;;;;;;-148.88;39.74;74321.13;5037220;28;20072;-85
2022/07/29 10:32:51;;;;;;;7.38;1.90;;;;;;;-148.88;40.07;74317.06;5037201;28;20029;-85
2022/07/29 10:35:25;;;;;;;6.07;1.73;;;;;;;-148.88;40.32;74294.72;5037341;28;20125;-84
2022/07/29 10:38:39;;;;;;;3.22;1.60;;;;;;;-148.88;40.36;74282.53;5036618;28;20035;-86
2022/07/29 10:41:30;;;;;;;4.18;1.73;;;;;;;-148.88;38.96;74254.09;4982966;28;20029;-85
2022/07/29 10:44:02;;;;;;;4.50;1.67;;;;;;;-148.88;39.82;74241.94;5036730;28;20036;-85
2022/07/29 10:46:28;;;;;;;4.50;1.60;;;;;;;-148.88;38.66;74254.09;5036658;28;20400;-84
2022/07/29 10:49:20;;;;;;;6.40;1.55;;;;;;;-148.88;38.04;74278.47;5036230;28;20025;-85
2022/07/29 10:52:09;;;;;;;4.75;1.70;;;;;;;-148.88;39.04;74254.09;5036580;28;20115;-85
2022/07/29 10:54:44;;;;;;;3.70;1.60;;;;;;;-148.88;38.22;74274.41;5036965;28;20029;-86
2022/07/29 10:57:27;;;;;;;6.28;1.65;;;;;;;-148.88;38.14;74258.16;5036134;28;20053;-84
2022/07/29 11:00:05;;;;;;;6.30;1.88;;;;;;;-148.88;37.60;74254.09;5036224;28;20510;-85
2022/07/29 11:02:34;;;;;;;8.40;1.70;;;;;;;-148.88;39.51;74215.53;5035806;28;20388;-84
2022/07/29 11:05:12;;;;;;;7.13;2.10;;;;;;;-148.88;37.29;74193.19;5035767;28;20021;-84
2022/07/29 11:07:57;;;;;;;7.07;2.00;;;;;;;-148.88;38.09;74197.25;5035971;28;20017;-85
2022/07/29 11:10:23;;;;;;;7.85;2.30;;;;;;;-148.88;38.55;74148.53;5035552;28;20029;-84
2022/07/29 11:12:49;;;;;;;6.57;2.13;;;;;;;-148.88;37.21;74101.81;5035627;28;20040;-85
2022/07/29 11:15:18;;;;;;;6.82;1.90;;;;;;;-148.88;37.06;74071.38;5035910;28;20545;-85
2022/07/29 11:18:00;;;;;;;4.82;1.98;;;;;;;-148.88;36.39;74006.41;5035407;28;20029;-85
2022/07/29 11:20:45;;;;;;;5.38;1.75;;;;;;;-148.88;35.95;73947.53;5035845;28;20025;-85
2022/07/29 11:23:29;;;;;;;5.72;1.98;;;;;;;-148.88;35.64;73986.09;5035826;28;20025;-85
2022/07/29 11:26:26;;;;;;;5.55;1.70;;;;;;;-148.88;35.38;73982.03;5036013;28;20021;-84
2022/07/29 11:29:03;;;;;;;6.47;2.00;;;;;;;-148.88;34.66;74032.78;5036320;28;20124;-85
2022/07/29 11:31:33;;;;;;;5.88;2.20;;;;;;;-148.88;35.29;74051.06;5036048;28;20021;-84
2022/07/29 11:34:18;;;;;;;5.32;1.90;;;;;;;-148.88;36.44;74081.53;5036618;28;20060;-85
2022/07/29 11:37:12;;;;;;;4.15;1.80;;;;;;;-148.88;36.34;74069.34;5035295;28;20029;-85